Accueil
METAR-TAF:

METAR-TAF

Aéroports :

Dubaï, Émirats arabes unis

Aéroport international de Dubaï

latitude: 25-15-10N, longitude: 055-21-52E, altitude: 8 m

Observation

Le bulletin a été fait il y a 57 minutes, à 17:00 UTC
Vent 7 kt de est/nord-est
Température 26°C
Humidité 51%
Pression 1019 hPa
Visibilité 10 km ou plus
pas de nuages en-dessous de 1500 mètres et pas de cumulonimbus.

METAR: OMDB 191700Z 06007KT CAVOK 26/15 Q1019 NOSIG

Heure: 21:57 (17:57 UTC)

Prévision

Le bulletin a été fait il y a 58 minutes, à 16:59 UTC
Prévision valable du 19 à 18 UTC au 21 à 00 UTC
Vent 7 kt de est
Visibilité 10 km ou plus
pas de nuages en-dessous de 1500 mètres et pas de cumulonimbus.
Evoluant progressivement
du 20 à 08 UTC au 20 à 10 UTC
Vent 10 kt de nord/nord-ouest
Evoluant progressivement
du 20 à 15 UTC au 20 à 17 UTC
Vent 5 kt de est

TAF: OMDB 191659Z 1918/2100 10007KT CAVOK BECMG 2008/2010 33010KT BECMG 2015/2017 10005KT

Observations et prévisions météorologiques de plus de 4000 aéroports (messages METAR et TAF).

Les stations disponibles sont représentées par des disques jaunes et rouges sur la carte.

Passer la souris dessus pour voir le nom de la station.

Cliquer dessus pour voir les observations et prévisions météorologiques.

Pour changer de carte: cliquez sur les boutons verts avec une croix noire pour zoomer, sur le bouton vert avec un tiret pour effectuer un zoom arrière, ou sur les flèches vertes pour les cartes adjacentes.


METAR-TAF: